Time;durP1;ratioP1;P1;durP2;ratioP2;P2;SDS_P1;SDS_P2;PMS_P1;PMS_P2;Temp;Humidity;BMP_temperature;BMP_pressure;BME280_temperature;BME280_humidity;BME280_pressure;Samples;Min_cycle;Max_cycle;Signal;HPM_P1;HPM_P2
2023/12/08 00:01:16;;;;;;;3.60;3.40;;;21.50;55.70;;;;;;4992732;28;20451;-84
2023/12/08 00:03:44;;;;;;;3.40;3.10;;;21.50;55.70;;;;;;4990499;28;20916;-83
2023/12/08 00:06:14;;;;;;;3.63;3.37;;;21.50;55.70;;;;;;4993546;28;20863;-83
2023/12/08 00:08:42;;;;;;;3.10;2.90;;;21.40;55.70;;;;;;4989533;28;20526;-83
2023/12/08 00:11:11;;;;;;;2.90;2.70;;;21.40;55.70;;;;;;5008150;28;20459;-83
2023/12/08 00:13:39;;;;;;;4.70;3.57;;;21.40;55.80;;;;;;4992730;28;20462;-84
2023/12/08 00:16:09;;;;;;;3.80;3.50;;;21.40;55.80;;;;;;4991976;28;20467;-85
2023/12/08 00:18:37;;;;;;;3.33;3.13;;;21.40;55.80;;;;;;4993506;28;20450;-83
2023/12/08 00:21:06;;;;;;;3.70;3.40;;;21.40;55.80;;;;;;4994234;28;20470;-83
2023/12/08 00:23:36;;;;;;;3.50;3.20;;;21.40;55.80;;;;;;5003209;28;20573;-89
2023/12/08 00:26:05;;;;;;;4.43;3.57;;;21.40;55.80;;;;;;4990695;28;20556;-88
2023/12/08 00:28:33;;;;;;;3.73;3.43;;;21.40;55.80;;;;;;4992364;28;20460;-84
2023/12/08 00:31:01;;;;;;;3.33;3.13;;;21.40;55.80;;;;;;4988837;28;20478;-85
2023/12/08 00:33:29;;;;;;;3.97;3.57;;;21.40;55.80;;;;;;4991044;28;20463;-83
2023/12/08 00:35:58;;;;;;;3.00;2.80;;;21.40;55.80;;;;;;4991849;28;20466;-84
2023/12/08 00:38:26;;;;;;;3.00;2.70;;;21.40;55.70;;;;;;4991509;28;20547;-84
2023/12/08 00:40:56;;;;;;;3.93;3.63;;;21.40;55.80;;;;;;4990442;28;20954;-86
2023/12/08 00:43:25;;;;;;;3.17;2.97;;;21.40;55.80;;;;;;4991693;28;20480;-85
2023/12/08 00:45:53;;;;;;;3.83;3.47;;;21.40;55.80;;;;;;4989908;28;20468;-83
2023/12/08 00:48:21;;;;;;;3.43;3.13;;;21.30;55.80;;;;;;4991264;28;20471;-83
2023/12/08 00:50:50;;;;;;;3.37;3.17;;;21.30;55.80;;;;;;4990471;28;20464;-83
2023/12/08 00:53:18;;;;;;;3.27;2.80;;;21.30;55.80;;;;;;4989148;28;20530;-83
2023/12/08 00:55:46;;;;;;;3.87;3.33;;;21.30;55.80;;;;;;4987242;28;20958;-85
2023/12/08 00:58:16;;;;;;;2.67;2.50;;;21.30;55.80;;;;;;4990236;28;20470;-85
2023/12/08 01:00:45;;;;;;;3.50;3.20;;;21.30;55.80;;;;;;4990419;28;20482;-84
2023/12/08 01:03:14;;;;;;;3.20;3.00;;;21.30;55.80;;;;;;4990214;28;20499;-83
2023/12/08 01:05:42;;;;;;;3.23;3.03;;;21.30;55.90;;;;;;4992052;28;20461;-83
2023/12/08 01:08:11;;;;;;;2.93;2.73;;;21.30;55.90;;;;;;4993129;28;20939;-85
2023/12/08 01:10:39;;;;;;;2.70;2.50;;;21.30;55.90;;;;;;4991354;28;20520;-83
2023/12/08 01:13:08;;;;;;;3.20;2.90;;;21.20;55.90;;;;;;4991632;28;21038;-84
2023/12/08 01:15:37;;;;;;;3.37;3.07;;;21.20;55.90;;;;;;4992020;28;20468;-83
2023/12/08 01:18:05;;;;;;;3.27;3.07;;;21.20;55.90;;;;;;5005114;28;20445;-83
2023/12/08 01:20:36;;;;;;;3.30;3.10;;;21.20;55.90;;;;;;4994769;28;20469;-87
2023/12/08 01:23:04;;;;;;;2.80;2.60;;;21.20;56.00;;;;;;4995149;28;20481;-84
2023/12/08 01:25:32;;;;;;;3.07;2.70;;;21.20;56.00;;;;;;4997923;28;20821;-83
2023/12/08 01:28:01;;;;;;;3.00;2.80;;;21.20;56.00;;;;;;4993909;28;20547;-84
2023/12/08 01:30:29;;;;;;;3.03;2.73;;;21.20;56.00;;;;;;4991407;28;20469;-83
2023/12/08 01:32:59;;;;;;;3.13;2.83;;;21.10;56.00;;;;;;4988873;28;20467;-83
2023/12/08 01:35:28;;;;;;;2.80;2.60;;;21.10;56.00;;;;;;4980280;28;20885;-83
2023/12/08 01:37:56;;;;;;;2.80;2.60;;;21.10;56.00;;;;;;5002770;28;20466;-83
2023/12/08 01:40:24;;;;;;;2.60;2.50;;;21.10;56.10;;;;;;4993027;28;20888;-85
2023/12/08 01:42:52;;;;;;;6.90;3.10;;;21.10;56.10;;;;;;4998694;28;20583;-83
2023/12/08 01:45:21;;;;;;;3.50;3.20;;;21.10;56.10;;;;;;4995520;28;20522;-84
2023/12/08 01:47:49;;;;;;;3.40;3.10;;;21.10;56.10;;;;;;4990893;28;20512;-83
2023/12/08 01:50:20;;;;;;;3.10;2.80;;;21.10;56.10;;;;;;4991417;28;20533;-83
2023/12/08 01:52:50;;;;;;;3.13;2.93;;;21.10;56.10;;;;;;4987874;28;20510;-83
2023/12/08 01:55:18;;;;;;;2.80;2.60;;;21.10;56.10;;;;;;4986814;28;20455;-83
2023/12/08 01:57:46;;;;;;;3.30;3.10;;;21.10;56.10;;;;;;4989417;28;20467;-83
2023/12/08 02:00:16;;;;;;;3.43;3.10;;;21.10;56.20;;;;;;4997568;28;20464;-83
2023/12/08 02:02:44;;;;;;;3.03;2.83;;;21.10;56.20;;;;;;4990766;28;20995;-83
2023/12/08 02:05:16;;;;;;;3.23;2.93;;;21.00;56.10;;;;;;4993289;28;20544;-83
2023/12/08 02:07:46;;;;;;;3.00;2.70;;;21.00;56.20;;;;;;4999624;28;20496;-83
2023/12/08 02:10:14;;;;;;;2.50;2.30;;;21.00;56.20;;;;;;4993329;28;20494;-83
2023/12/08 02:12:42;;;;;;;3.10;2.77;;;21.00;56.20;;;;;;4998024;28;20493;-83
2023/12/08 02:15:12;;;;;;;2.80;2.60;;;21.00;56.20;;;;;;4989712;28;20490;-84
2023/12/08 02:17:45;;;;;;;2.47;2.33;;;21.00;56.20;;;;;;4989527;28;20466;-83
2023/12/08 02:20:14;;;;;;;3.03;2.83;;;21.00;56.20;;;;;;4989515;28;20456;-83
2023/12/08 02:22:42;;;;;;;3.33;3.13;;;21.00;56.20;;;;;;4990429;28;20454;-83
2023/12/08 02:25:12;;;;;;;2.40;2.20;;;21.00;56.20;;;;;;4990793;28;20464;-84
2023/12/08 02:27:40;;;;;;;3.03;2.83;;;21.00;56.20;;;;;;4990104;28;20464;-83
2023/12/08 02:30:09;;;;;;;2.27;2.17;;;21.00;56.20;;;;;;4992240;28;20451;-84
2023/12/08 02:32:42;;;;;;;2.93;2.40;;;21.00;56.20;;;;;;4991206;28;20489;-83
2023/12/08 02:35:13;;;;;;;2.90;2.70;;;21.00;56.20;;;;;;4992378;28;20459;-86
2023/12/08 02:37:47;;;;;;;3.27;3.07;;;21.00;56.30;;;;;;4991562;28;20441;-86
2023/12/08 02:40:16;;;;;;;2.80;2.60;;;20.90;56.40;;;;;;4991450;28;20476;-83
2023/12/08 02:42:45;;;;;;;2.83;2.67;;;20.90;56.40;;;;;;4991246;28;20514;-83
2023/12/08 02:45:13;;;;;;;3.40;3.10;;;20.90;56.40;;;;;;5004373;28;20883;-83
2023/12/08 02:47:41;;;;;;;2.93;2.73;;;20.90;56.40;;;;;;4988962;28;20491;-83
2023/12/08 02:50:10;;;;;;;2.20;2.00;;;20.90;56.40;;;;;;4998659;28;20452;-83
2023/12/08 02:52:38;;;;;;;2.83;2.63;;;20.90;56.40;;;;;;4993438;28;20950;-83
2023/12/08 02:55:07;;;;;;;2.80;2.60;;;20.90;56.40;;;;;;4999738;28;20505;-84
2023/12/08 02:57:37;;;;;;;2.23;2.03;;;20.90;56.40;;;;;;4994059;28;20544;-84
2023/12/08 03:00:07;;;;;;;2.60;2.50;;;20.90;56.40;;;;;;5001930;28;20451;-85
2023/12/08 03:02:35;;;;;;;2.63;2.43;;;20.90;56.40;;;;;;4994431;28;20474;-87
2023/12/08 03:05:04;;;;;;;2.97;2.77;;;20.90;56.40;;;;;;4998384;28;20591;-83
2023/12/08 03:07:32;;;;;;;2.80;2.60;;;20.80;56.50;;;;;;4994261;28;20466;-83
2023/12/08 03:10:00;;;;;;;2.70;2.50;;;20.90;56.50;;;;;;4994441;28;20470;-84
2023/12/08 03:12:29;;;;;;;2.77;2.57;;;20.80;56.50;;;;;;4994169;28;20490;-83
2023/12/08 03:14:58;;;;;;;2.90;2.70;;;20.80;56.50;;;;;;4992902;28;20806;-83
2023/12/08 03:17:27;;;;;;;3.10;2.90;;;20.80;56.50;;;;;;4994330;28;20467;-83
2023/12/08 03:19:56;;;;;;;2.60;2.40;;;20.80;56.50;;;;;;4994544;28;21056;-87
2023/12/08 03:22:24;;;;;;;2.50;2.40;;;20.80;56.50;;;;;;4993901;28;20490;-84
2023/12/08 03:24:52;;;;;;;3.00;2.80;;;20.80;56.50;;;;;;5004628;28;20521;-84
2023/12/08 03:27:20;;;;;;;2.17;2.07;;;20.80;56.50;;;;;;4992604;28;20455;-86
2023/12/08 03:29:49;;;;;;;2.47;2.27;;;20.80;56.50;;;;;;4992757;28;20463;-83
2023/12/08 03:32:18;;;;;;;2.77;2.57;;;20.80;56.50;;;;;;4989408;28;20478;-83
2023/12/08 03:34:46;;;;;;;2.00;1.90;;;20.80;56.50;;;;;;4991709;28;20463;-84
2023/12/08 03:37:14;;;;;;;3.17;2.90;;;20.70;56.60;;;;;;4998902;28;20467;-83
2023/12/08 03:39:44;;;;;;;2.50;2.30;;;20.70;56.50;;;;;;4993443;28;20494;-83
2023/12/08 03:42:12;;;;;;;2.50;2.30;;;20.70;56.60;;;;;;4988850;28;20467;-87
2023/12/08 03:44:41;;;;;;;2.50;2.30;;;20.70;56.60;;;;;;4992397;28;20477;-86
2023/12/08 03:47:09;;;;;;;2.73;2.53;;;20.70;56.60;;;;;;4992285;28;20454;-83
2023/12/08 03:49:38;;;;;;;2.33;2.23;;;20.70;56.60;;;;;;4993684;28;20451;-85
2023/12/08 03:52:07;;;;;;;2.90;2.70;;;20.70;56.60;;;;;;4993428;28;20445;-83
2023/12/08 03:54:35;;;;;;;2.43;2.23;;;20.70;56.60;;;;;;4993070;28;20466;-86
2023/12/08 03:57:04;;;;;;;2.20;2.10;;;20.70;56.60;;;;;;4995189;28;20460;-83
2023/12/08 03:59:32;;;;;;;2.60;2.47;;;20.70;56.60;;;;;;4994360;28;20455;-84
2023/12/08 04:02:00;;;;;;;2.40;2.30;;;20.70;56.60;;;;;;5004088;28;20476;-83
2023/12/08 04:04:28;;;;;;;2.57;2.37;;;20.70;56.60;;;;;;4992922;28;20498;-83
2023/12/08 04:06:58;;;;;;;2.53;2.33;;;20.70;56.60;;;;;;4993655;28;20462;-84
2023/12/08 04:09:26;;;;;;;2.40;2.20;;;20.70;56.60;;;;;;4990566;28;20483;-83
2023/12/08 04:11:56;;;;;;;2.70;2.50;;;20.70;56.60;;;;;;4992860;28;21178;-84
2023/12/08 04:14:24;;;;;;;2.60;2.40;;;20.70;56.60;;;;;;4991241;28;21044;-83
2023/12/08 04:16:52;;;;;;;2.17;2.03;;;20.60;56.60;;;;;;4992863;28;20459;-85
2023/12/08 04:19:21;;;;;;;2.47;2.27;;;20.60;56.60;;;;;;4993028;28;20466;-83
2023/12/08 04:21:50;;;;;;;2.20;2.10;;;20.60;56.70;;;;;;4992518;28;20467;-83
2023/12/08 04:24:19;;;;;;;1.90;1.80;;;20.60;56.70;;;;;;4993244;28;20482;-83
2023/12/08 04:26:48;;;;;;;2.83;2.63;;;20.60;56.70;;;;;;4991911;28;20470;-83
2023/12/08 04:29:16;;;;;;;2.30;2.20;;;20.60;56.70;;;;;;4986676;28;20451;-84
2023/12/08 04:31:45;;;;;;;2.43;2.23;;;20.60;56.70;;;;;;4987147;28;20455;-84
2023/12/08 04:34:13;;;;;;;2.30;2.20;;;20.60;56.70;;;;;;4998452;28;20466;-83
2023/12/08 04:36:41;;;;;;;2.67;2.47;;;20.60;56.70;;;;;;4999349;28;20489;-84
2023/12/08 04:39:09;;;;;;;2.23;2.03;;;20.60;56.70;;;;;;4992159;28;20516;-83
2023/12/08 04:41:39;;;;;;;2.83;2.63;;;20.60;56.70;;;;;;4991281;28;20473;-84
2023/12/08 04:44:07;;;;;;;2.27;2.17;;;20.60;56.70;;;;;;4991030;28;20481;-84
2023/12/08 04:46:35;;;;;;;2.73;2.40;;;20.60;56.70;;;;;;4987179;28;20965;-85
2023/12/08 04:49:03;;;;;;;2.30;2.20;;;20.60;56.70;;;;;;4994955;28;20946;-87
2023/12/08 04:51:32;;;;;;;2.27;2.17;;;20.60;56.70;;;;;;4991620;28;20458;-83
2023/12/08 04:54:00;;;;;;;2.20;2.10;;;20.50;56.70;;;;;;5001216;28;20516;-83
2023/12/08 04:56:28;;;;;;;2.10;2.00;;;20.50;56.70;;;;;;5000338;28;20549;-83
2023/12/08 04:58:58;;;;;;;2.30;2.20;;;20.50;56.70;;;;;;4992194;28;20520;-87
2023/12/08 05:01:26;;;;;;;2.27;2.13;;;20.50;56.70;;;;;;4988220;28;20465;-85
2023/12/08 05:03:54;;;;;;;2.17;2.07;;;20.50;56.70;;;;;;4990255;28;20497;-83
2023/12/08 05:06:26;;;;;;;2.27;2.10;;;20.50;56.70;;;;;;4988323;28;20474;-83
2023/12/08 05:08:54;;;;;;;1.90;1.80;;;20.60;56.70;;;;;;5005123;28;20464;-83
2023/12/08 05:11:23;;;;;;;2.00;1.90;;;20.60;56.80;;;;;;4992107;28;21008;-83
2023/12/08 05:13:51;;;;;;;2.30;2.20;;;20.60;56.70;;;;;;4992803;28;20454;-84
2023/12/08 05:16:21;;;;;;;2.63;2.00;;;20.70;56.70;;;;;;4986833;28;20474;-83
2023/12/08 05:18:49;;;;;;;2.37;2.23;;;20.70;56.70;;;;;;4989726;28;21040;-83
2023/12/08 05:21:17;;;;;;;1.80;1.70;;;20.70;56.70;;;;;;4991863;28;20491;-83
2023/12/08 05:23:45;;;;;;;2.30;2.10;;;20.80;56.60;;;;;;4978264;28;20895;-83
2023/12/08 05:26:14;;;;;;;1.90;1.80;;;20.80;56.60;;;;;;4982460;28;20487;-83
2023/12/08 05:28:42;;;;;;;1.87;1.77;;;20.90;56.60;;;;;;5001743;28;20461;-83
2023/12/08 05:31:11;;;;;;;2.70;2.50;;;21.00;56.40;;;;;;4988357;28;20525;-85
2023/12/08 05:33:41;;;;;;;2.50;2.40;;;21.00;56.40;;;;;;4989189;28;20461;-83
2023/12/08 05:36:11;;;;;;;2.30;2.20;;;21.10;56.30;;;;;;4989566;28;20513;-84
2023/12/08 05:38:39;;;;;;;2.00;1.90;;;21.10;56.30;;;;;;4991148;28;20463;-83
2023/12/08 05:41:07;;;;;;;2.70;2.50;;;21.20;56.20;;;;;;4987861;28;20495;-85
2023/12/08 05:43:35;;;;;;;2.17;2.07;;;21.20;56.20;;;;;;4988311;28;20489;-84
2023/12/08 05:46:04;;;;;;;2.17;2.07;;;21.30;56.20;;;;;;4986710;28;20504;-83
2023/12/08 05:48:32;;;;;;;2.40;2.30;;;21.30;56.10;;;;;;4986961;28;20804;-83
2023/12/08 05:51:02;;;;;;;2.07;1.97;;;21.40;56.10;;;;;;4984870;28;20534;-87
2023/12/08 05:53:30;;;;;;;2.10;1.90;;;21.50;56.00;;;;;;4986191;28;20486;-86
2023/12/08 05:55:59;;;;;;;2.20;2.10;;;21.50;56.00;;;;;;4991632;28;20463;-86
2023/12/08 05:58:27;;;;;;;2.00;1.90;;;21.60;55.90;;;;;;4989948;28;20936;-84
2023/12/08 06:00:56;;;;;;;1.97;1.87;;;21.70;55.90;;;;;;4980420;28;20464;-84
2023/12/08 06:03:24;;;;;;;2.00;1.90;;;21.70;55.80;;;;;;4986696;28;20588;-83
2023/12/08 06:05:52;;;;;;;2.70;2.50;;;21.80;55.70;;;;;;4987143;28;20506;-83
2023/12/08 06:08:22;;;;;;;2.10;2.00;;;21.80;55.70;;;;;;4986849;28;20473;-84
2023/12/08 06:10:51;;;;;;;2.60;2.40;;;21.90;55.60;;;;;;4985636;28;20460;-88
2023/12/08 06:13:19;;;;;;;2.13;1.97;;;22.00;55.50;;;;;;4982619;28;20532;-83
2023/12/08 06:15:48;;;;;;;2.03;1.93;;;22.00;55.40;;;;;;4983783;28;21035;-83
2023/12/08 06:18:16;;;;;;;1.93;1.83;;;22.10;55.40;;;;;;4987285;28;21035;-83
2023/12/08 06:20:44;;;;;;;1.90;1.80;;;22.10;55.30;;;;;;4994219;28;20536;-81
2023/12/08 06:23:12;;;;;;;2.20;2.07;;;22.10;55.30;;;;;;4983677;28;20470;-82
2023/12/08 06:25:42;;;;;;;2.20;2.10;;;22.10;55.20;;;;;;4989501;28;20481;-84
2023/12/08 06:28:11;;;;;;;2.13;2.03;;;22.10;55.20;;;;;;4990399;28;20491;-83
2023/12/08 06:30:39;;;;;;;2.37;2.17;;;22.00;55.20;;;;;;4989858;28;20733;-83
2023/12/08 06:33:07;;;;;;;2.23;2.13;;;22.00;55.20;;;;;;4991462;28;20472;-84
2023/12/08 06:35:36;;;;;;;1.83;1.73;;;22.00;55.30;;;;;;4983135;28;20463;-81
2023/12/08 06:38:05;;;;;;;1.80;1.70;;;21.90;55.30;;;;;;4984511;28;20493;-82
2023/12/08 06:40:33;;;;;;;1.80;1.70;;;21.90;55.30;;;;;;4985905;28;20467;-82
2023/12/08 06:43:03;;;;;;;2.10;1.97;;;21.80;55.40;;;;;;4980097;28;20543;-81
2023/12/08 06:45:31;;;;;;;2.40;2.20;;;21.80;55.50;;;;;;4979722;28;20536;-82
2023/12/08 06:47:59;;;;;;;2.03;1.93;;;21.70;55.50;;;;;;4991612;28;20460;-85
2023/12/08 06:50:28;;;;;;;2.53;2.40;;;21.70;55.60;;;;;;4991115;28;20464;-83
2023/12/08 06:52:56;;;;;;;1.80;1.70;;;21.60;55.80;;;;;;4984504;28;20483;-82
2023/12/08 06:55:25;;;;;;;1.80;1.70;;;21.60;55.90;;;;;;4984212;28;20459;-82
2023/12/08 06:57:53;;;;;;;2.00;1.90;;;21.60;55.90;;;;;;4975897;28;20463;-83
2023/12/08 07:00:23;;;;;;;2.13;2.03;;;21.60;55.90;;;;;;4994943;28;20469;-82
2023/12/08 07:02:51;;;;;;;1.73;1.63;;;21.60;56.00;;;;;;4981128;28;20455;-83
2023/12/08 07:05:20;;;;;;;2.20;2.10;;;21.60;56.00;;;;;;4984370;28;20995;-81
2023/12/08 07:07:50;;;;;;;1.87;1.77;;;21.60;56.00;;;;;;4980101;28;20486;-84
2023/12/08 07:10:19;;;;;;;2.40;2.30;;;21.60;56.00;;;;;;4981214;28;20451;-81
2023/12/08 07:12:47;;;;;;;2.37;2.10;;;21.70;56.00;;;;;;4986923;28;20511;-81
2023/12/08 07:15:15;;;;;;;3.23;1.90;;;21.70;55.90;;;;;;4992358;28;20451;-82
2023/12/08 07:17:45;;;;;;;2.20;2.10;;;21.70;55.90;;;;;;4991759;28;20946;-82
2023/12/08 07:20:17;;;;;;;3.00;2.20;;;21.70;55.80;;;;;;4985474;28;20463;-82
2023/12/08 07:22:45;;;;;;;2.00;1.90;;;21.80;55.80;;;;;;4992472;28;20459;-82
2023/12/08 07:25:14;;;;;;;2.07;1.97;;;21.80;55.80;;;;;;4994123;28;20496;-83
2023/12/08 07:27:43;;;;;;;2.00;1.90;;;21.80;55.70;;;;;;4993533;28;20461;-81
2023/12/08 07:30:12;;;;;;;2.03;1.93;;;21.80;55.70;;;;;;4985709;28;20470;-82
2023/12/08 07:32:40;;;;;;;2.20;2.10;;;21.80;55.70;;;;;;4991432;28;20457;-81
2023/12/08 07:35:10;;;;;;;1.90;1.80;;;21.80;55.70;;;;;;4994155;28;20456;-82
2023/12/08 07:37:42;;;;;;;2.00;1.90;;;21.90;55.70;;;;;;4994976;28;20464;-82
2023/12/08 07:40:11;;;;;;;2.40;2.10;;;21.90;55.70;;;;;;4992798;28;20455;-82
2023/12/08 07:42:40;;;;;;;1.97;1.87;;;21.90;55.70;;;;;;4982033;28;20466;-82
2023/12/08 07:45:09;;;;;;;1.90;1.80;;;21.90;55.60;;;;;;4992704;28;21030;-82
2023/12/08 07:47:38;;;;;;;1.93;1.83;;;21.90;55.60;;;;;;4988846;28;20984;-85
2023/12/08 07:50:08;;;;;;;2.13;2.03;;;21.90;55.60;;;;;;4994260;28;20441;-82
2023/12/08 07:52:38;;;;;;;2.10;2.00;;;22.00;55.60;;;;;;4992621;28;20467;-84
2023/12/08 07:55:07;;;;;;;1.93;1.83;;;21.90;55.60;;;;;;4993938;28;20447;-83
2023/12/08 07:57:36;;;;;;;1.67;1.57;;;21.90;55.60;;;;;;4983586;28;20484;-82
2023/12/08 08:00:06;;;;;;;1.77;1.67;;;21.90;55.60;;;;;;4990232;28;20465;-82
2023/12/08 08:02:34;;;;;;;2.10;2.00;;;21.90;55.50;;;;;;4990533;28;20468;-86
2023/12/08 08:05:02;;;;;;;1.93;1.83;;;21.90;55.60;;;;;;4995629;28;20486;-81
2023/12/08 08:07:31;;;;;;;2.10;2.00;;;21.90;55.60;;;;;;4991928;28;20508;-85
2023/12/08 08:10:02;;;;;;;2.50;2.20;;;21.80;55.60;;;;;;4993356;28;20445;-83
2023/12/08 08:12:32;;;;;;;2.00;1.90;;;21.80;55.60;;;;;;4992689;28;20958;-81
2023/12/08 08:15:00;;;;;;;2.00;1.90;;;21.80;55.60;;;;;;4988938;28;20870;-81
2023/12/08 08:17:29;;;;;;;2.10;2.00;;;21.80;55.70;;;;;;4992787;28;20554;-83
2023/12/08 08:19:57;;;;;;;1.70;1.60;;;21.80;55.70;;;;;;4993111;28;20479;-83
2023/12/08 08:22:26;;;;;;;2.07;1.87;;;21.70;55.80;;;;;;4990350;28;20463;-81
2023/12/08 08:25:01;;;;;;;2.00;1.90;;;21.70;55.80;;;;;;4990680;28;20452;-81
2023/12/08 08:27:31;;;;;;;1.93;1.83;;;21.70;55.80;;;;;;4991125;28;20480;-81
2023/12/08 08:30:00;;;;;;;2.10;2.00;;;21.70;55.90;;;;;;4991874;28;20455;-86
2023/12/08 08:32:28;;;;;;;1.83;1.73;;;21.70;55.90;;;;;;4991459;28;20959;-81
2023/12/08 08:34:58;;;;;;;2.10;2.00;;;21.70;55.90;;;;;;4991076;28;20515;-81
2023/12/08 08:37:28;;;;;;;2.10;2.00;;;21.70;55.90;;;;;;4989425;28;20478;-82
2023/12/08 08:39:57;;;;;;;2.03;1.93;;;21.80;55.90;;;;;;4988082;28;20493;-81
2023/12/08 08:42:27;;;;;;;2.10;2.00;;;21.80;55.90;;;;;;4993297;28;20553;-81
2023/12/08 08:44:55;;;;;;;2.10;1.90;;;21.80;55.90;;;;;;4991223;28;20463;-81
2023/12/08 08:47:24;;;;;;;1.93;1.83;;;21.80;55.80;;;;;;4996355;28;20822;-81
2023/12/08 08:49:53;;;;;;;1.80;1.70;;;21.80;55.80;;;;;;5000117;28;20451;-82
2023/12/08 08:52:21;;;;;;;2.00;1.90;;;21.90;55.80;;;;;;4999525;28;20471;-82
2023/12/08 08:54:50;;;;;;;1.90;1.80;;;21.90;55.80;;;;;;4999023;28;20451;-82
2023/12/08 08:57:18;;;;;;;1.90;1.80;;;21.90;55.70;;;;;;4997423;28;20462;-82
2023/12/08 08:59:48;;;;;;;1.90;1.80;;;21.90;55.70;;;;;;4996086;28;20473;-81
2023/12/08 09:02:16;;;;;;;2.03;1.93;;;22.00;55.70;;;;;;4999044;28;20494;-81
2023/12/08 09:04:52;;;;;;;2.47;2.30;;;22.00;55.70;;;;;;5112847;27;20551;-63
2023/12/08 09:07:21;;;;;;;1.63;1.53;;;22.00;55.70;;;;;;5094589;28;20473;-64
2023/12/08 09:09:49;;;;;;;1.77;1.67;;;22.00;55.60;;;;;;5098309;28;20970;-64
2023/12/08 09:12:17;;;;;;;1.70;1.60;;;22.00;55.60;;;;;;5097594;28;20494;-63
2023/12/08 09:14:46;;;;;;;2.40;2.20;;;22.00;55.60;;;;;;5091692;28;20440;-64
2023/12/08 09:17:14;;;;;;;1.97;1.87;;;22.00;55.60;;;;;;5092281;28;20535;-64
2023/12/08 09:19:42;;;;;;;1.83;1.70;;;22.00;55.60;;;;;;5095817;28;20452;-64
2023/12/08 09:22:12;;;;;;;2.10;2.00;;;22.00;55.60;;;;;;5098656;28;20444;-64
2023/12/08 09:24:40;;;;;;;1.80;1.70;;;22.00;55.60;;;;;;5098354;28;20501;-65
2023/12/08 09:27:08;;;;;;;1.70;1.60;;;22.00;55.60;;;;;;5101449;28;20452;-64
2023/12/08 09:29:36;;;;;;;2.07;1.97;;;22.00;55.60;;;;;;5090204;28;20441;-64
2023/12/08 09:32:06;;;;;;;1.60;1.50;;;22.00;55.60;;;;;;5090703;28;21393;-65
2023/12/08 09:34:34;;;;;;;2.03;1.93;;;22.00;55.70;;;;;;5087454;28;20464;-65
2023/12/08 09:37:02;;;;;;;1.97;1.87;;;22.00;55.60;;;;;;5092301;28;20429;-63
2023/12/08 09:39:52;;;;;;;1.80;1.70;;;22.00;55.60;;;;;;5082069;28;20547;-64
2023/12/08 09:42:29;;;;;;;1.90;1.80;;;22.00;55.60;;;;;;5100928;28;20449;-64
2023/12/08 09:44:58;;;;;;;2.20;2.00;;;22.00;55.70;;;;;;5090031;28;20463;-63
2023/12/08 09:47:29;;;;;;;2.00;1.90;;;22.00;55.70;;;;;;5086158;28;20448;-63
2023/12/08 09:50:00;;;;;;;2.50;2.30;;;22.00;55.70;;;;;;5100515;28;20533;-63
2023/12/08 09:52:29;;;;;;;1.70;1.50;;;22.00;55.70;;;;;;5103559;28;20453;-68
2023/12/08 09:54:59;;;;;;;2.00;1.90;;;21.90;55.70;;;;;;5101623;28;20440;-63
2023/12/08 09:57:29;;;;;;;1.73;1.63;;;21.90;55.70;;;;;;5090216;28;20456;-63
2023/12/08 09:59:59;;;;;;;1.80;1.70;;;21.90;55.70;;;;;;5091610;28;20440;-63
2023/12/08 10:02:28;;;;;;;1.70;1.60;;;21.90;55.80;;;;;;5091235;28;20444;-63
2023/12/08 10:04:56;;;;;;;2.00;1.90;;;21.90;55.80;;;;;;5094753;28;21294;-63
2023/12/08 10:07:31;;;;;;;1.83;1.73;;;21.90;55.80;;;;;;5100782;28;20463;-64
2023/12/08 10:10:01;;;;;;;1.87;1.77;;;21.80;55.80;;;;;;5105434;28;20960;-63
2023/12/08 10:12:29;;;;;;;2.10;2.00;;;21.80;55.80;;;;;;5092707;28;20497;-65
2023/12/08 10:15:00;;;;;;;1.77;1.67;;;21.80;55.80;;;;;;5084952;28;20443;-63
2023/12/08 10:17:28;;;;;;;2.27;1.93;;;21.80;55.90;;;;;;5078515;28;20845;-63
2023/12/08 10:20:11;;;;;;;1.80;1.70;;;21.80;55.90;;;;;;5085132;28;20439;-63
2023/12/08 10:22:48;;;;;;;1.63;1.53;;;21.90;55.90;;;;;;5086426;28;20457;-66
2023/12/08 10:25:19;;;;;;;2.00;1.90;;;21.90;55.90;;;;;;5085255;28;20477;-63
2023/12/08 10:27:49;;;;;;;2.00;1.90;;;21.90;55.90;;;;;;5073363;28;20448;-63
2023/12/08 10:30:19;;;;;;;1.77;1.67;;;21.90;55.90;;;;;;5074029;28;20963;-63
2023/12/08 10:32:47;;;;;;;1.70;1.60;;;21.90;55.80;;;;;;5079843;28;20435;-65
2023/12/08 10:35:17;;;;;;;1.70;1.60;;;22.00;55.80;;;;;;5079521;28;20814;-65
2023/12/08 10:37:45;;;;;;;1.87;1.77;;;22.00;55.80;;;;;;5081496;28;20519;-64
2023/12/08 10:40:17;;;;;;;1.80;1.70;;;22.00;55.80;;;;;;5083627;28;20499;-63
2023/12/08 10:42:47;;;;;;;2.73;2.53;;;22.00;55.80;;;;;;5081218;28;20468;-65
2023/12/08 10:45:17;;;;;;;2.57;2.37;;;22.00;55.50;;;;;;5075863;28;20895;-63
2023/12/08 10:47:49;;;;;;;1.47;1.37;;;22.00;55.60;;;;;;5069294;28;20485;-68
2023/12/08 10:50:20;;;;;;;1.90;1.80;;;22.00;55.70;;;;;;5085586;28;20445;-63
2023/12/08 10:52:51;;;;;;;1.80;1.70;;;22.00;55.70;;;;;;5084332;28;20447;-64
2023/12/08 10:55:19;;;;;;;1.90;1.80;;;22.10;55.70;;;;;;5079173;28;20486;-65
2023/12/08 10:57:56;;;;;;;2.07;1.93;;;22.00;55.70;;;;;;5079776;28;21003;-64
2023/12/08 11:00:26;;;;;;;1.63;1.53;;;22.00;55.80;;;;;;5080033;28;21082;-64
2023/12/08 11:02:55;;;;;;;1.80;1.70;;;22.00;55.70;;;;;;5078636;28;20493;-64
2023/12/08 11:05:28;;;;;;;1.53;1.43;;;22.10;55.70;;;;;;5075462;28;20560;-63
2023/12/08 11:07:58;;;;;;;1.73;1.63;;;22.00;55.70;;;;;;5084734;28;20440;-63
2023/12/08 11:10:31;;;;;;;1.80;1.70;;;22.00;55.70;;;;;;5073854;28;20452;-63
2023/12/08 11:13:09;;;;;;;1.77;1.67;;;22.00;55.70;;;;;;5076700;28;20444;-65
2023/12/08 11:15:43;;;;;;;1.63;1.53;;;22.00;55.70;;;;;;5081761;28;20501;-63
2023/12/08 11:18:22;;;;;;;1.77;1.67;;;22.00;55.70;;;;;;5065415;28;20517;-63
2023/12/08 11:20:52;;;;;;;2.23;2.03;;;22.00;55.80;;;;;;5071947;28;20457;-64
2023/12/08 11:23:21;;;;;;;1.70;1.60;;;22.00;55.80;;;;;;5079422;28;20780;-63
2023/12/08 11:26:00;;;;;;;2.07;1.87;;;22.00;55.80;;;;;;5080894;28;20852;-63
2023/12/08 11:28:42;;;;;;;1.93;1.83;;;22.00;55.80;;;;;;5072269;28;20452;-63
2023/12/08 11:31:19;;;;;;;2.43;2.27;;;22.00;55.80;;;;;;5077034;28;20849;-64
2023/12/08 11:33:59;;;;;;;1.70;1.60;;;22.00;55.70;;;;;;5077519;28;20440;-63
2023/12/08 11:36:29;;;;;;;1.60;1.50;;;22.00;55.80;;;;;;5076304;28;20515;-63
2023/12/08 11:38:57;;;;;;;1.90;1.80;;;22.00;55.80;;;;;;5072110;28;20445;-64
2023/12/08 11:41:25;;;;;;;1.80;1.70;;;22.00;55.80;;;;;;5073816;28;20540;-63
2023/12/08 11:43:56;;;;;;;1.83;1.73;;;22.00;55.80;;;;;;5077710;28;20445;-63
2023/12/08 11:46:25;;;;;;;2.63;2.20;;;22.00;55.80;;;;;;5063044;28;20453;-64
2023/12/08 11:48:53;;;;;;;1.87;1.77;;;22.10;55.80;;;;;;5080536;28;20453;-63
2023/12/08 11:51:24;;;;;;;1.80;1.70;;;22.10;55.80;;;;;;5063357;28;20461;-64
2023/12/08 11:53:55;;;;;;;1.60;1.50;;;22.10;55.80;;;;;;5080037;28;20491;-64
2023/12/08 11:56:39;;;;;;;2.13;2.03;;;22.10;55.80;;;;;;5068552;28;20953;-63
2023/12/08 11:59:13;;;;;;;1.67;1.57;;;22.10;55.70;;;;;;5071468;28;20450;-65
2023/12/08 12:01:42;;;;;;;1.40;1.40;;;22.10;55.80;;;;;;5059515;28;20452;-63
2023/12/08 12:04:11;;;;;;;1.93;1.83;;;22.10;55.70;;;;;;5068895;28;20505;-65
2023/12/08 12:06:44;;;;;;;2.10;2.00;;;22.10;55.70;;;;;;5073687;28;20529;-63
2023/12/08 12:09:13;;;;;;;2.20;2.00;;;22.10;55.70;;;;;;5070286;28;20453;-63
2023/12/08 12:11:42;;;;;;;1.80;1.70;;;22.10;55.60;;;;;;5070892;28;20445;-63
2023/12/08 12:14:15;;;;;;;2.33;2.23;;;22.00;55.70;;;;;;5077486;28;20452;-64
2023/12/08 12:16:43;;;;;;;1.73;1.63;;;22.00;55.80;;;;;;5073644;28;20842;-63
2023/12/08 12:19:12;;;;;;;1.67;1.57;;;22.00;55.80;;;;;;5073201;28;20456;-64
2023/12/08 12:21:43;;;;;;;1.80;1.70;;;22.00;55.80;;;;;;5071491;28;20496;-63
2023/12/08 12:24:11;;;;;;;1.60;1.50;;;22.00;55.90;;;;;;5067732;28;20472;-64
2023/12/08 12:26:39;;;;;;;1.63;1.53;;;22.00;55.90;;;;;;5062246;28;20791;-63
2023/12/08 12:29:07;;;;;;;1.53;1.43;;;22.00;55.90;;;;;;5073925;28;20444;-65
2023/12/08 12:31:38;;;;;;;1.87;1.77;;;22.00;55.90;;;;;;5083559;28;20490;-63
2023/12/08 12:34:06;;;;;;;1.60;1.50;;;22.00;55.90;;;;;;5073568;28;20468;-63
2023/12/08 12:36:34;;;;;;;1.57;1.47;;;22.00;55.90;;;;;;5068065;28;20463;-68
2023/12/08 12:39:03;;;;;;;1.77;1.67;;;22.00;56.00;;;;;;5073522;28;20451;-64
2023/12/08 12:41:32;;;;;;;1.70;1.60;;;22.00;56.00;;;;;;5073901;28;20530;-65
2023/12/08 12:44:01;;;;;;;1.83;1.73;;;22.00;56.00;;;;;;5072607;28;20538;-64
2023/12/08 12:46:30;;;;;;;1.50;1.40;;;22.00;56.00;;;;;;5075523;28;21037;-64
2023/12/08 12:48:58;;;;;;;1.97;1.87;;;22.00;56.00;;;;;;5066594;28;20461;-65
2023/12/08 12:51:34;;;;;;;2.10;1.90;;;22.10;55.90;;;;;;5062841;28;20446;-68
2023/12/08 12:54:03;;;;;;;2.00;1.80;;;22.10;55.90;;;;;;5071788;28;20936;-64
2023/12/08 12:56:33;;;;;;;2.80;2.53;;;22.10;56.10;;;;;;5074401;28;20991;-64
2023/12/08 12:59:09;;;;;;;4.40;3.33;;;22.10;56.30;;;;;;5073377;28;20467;-64